^^
Paulen-Weather Station Historical Data
Daily Summary for May 26, 2022 Units:  Metric    English   Both
Daily Weekly Monthly Yearly Custom
  High: Low: Average:
Temperature: 15 °C 10 °C 12.6 °C
Dew Point: 11 °C 6 °C 8.8 °C
Humidity: 97% 60% 78%
Wind Speed: 38km/h 6km/h 19.6km/h
Wind Gust: 29km/h - -
Wind- - NNW
Pressure: 1007.25 hPa 999.76 hPa -
Precipitation: 0.41 mm    
Historical Graphs
 
 
Tabular Data for May 26, 2022
Time Temperature Dew Point Pressure Wind Wind Speed Wind Gust Humidity Rainfall Rate (Hourly) solar
00:04 12 °C 11 °C 1000.68 hPa N 29 km/h 22 km/h 97% 0.41 mm 0 W/m2
00:09 12 °C 11 °C 1000.58 hPa N 24 km/h 20 km/h 97% 0.41 mm 0 W/m2
00:14 12 °C 11 °C 1000.51 hPa N 20 km/h 15 km/h 97% 0.41 mm 0 W/m2
00:19 12 °C 11 °C 1000.44 hPa N 19 km/h 15 km/h 97% 0.2 mm 0 W/m2
00:24 12 °C 11 °C 1000.41 hPa N 18 km/h 15 km/h 97% 0.2 mm 0 W/m2
00:29 12 °C 11 °C 1000.37 hPa N 24 km/h 18 km/h 97% 0.2 mm 0 W/m2
00:34 12 °C 11 °C 1000.34 hPa N 23 km/h 18 km/h 97% 0 mm 0 W/m2
00:39 12 °C 11 °C 1000.34 hPa N 24 km/h 18 km/h 97% 0 mm 0 W/m2
00:44 12 °C 11 °C 1000.27 hPa N 20 km/h 16 km/h 97% 0 mm 0 W/m2
00:49 12 °C 11 °C 1000.31 hPa N 19 km/h 15 km/h 97% 0 mm 0 W/m2
00:54 12 °C 11 °C 1000.31 hPa N 19 km/h 17 km/h 97% 0 mm 0 W/m2
00:59 12 °C 11 °C 1000.27 hPa N 21 km/h 21 km/h 97% 0 mm 0 W/m2
01:04 12 °C 11 °C 1000.27 hPa N 21 km/h 18 km/h 97% 0 mm 0 W/m2
01:09 12 °C 11 °C 1000.27 hPa N 22 km/h 17 km/h 96% 0 mm 0 W/m2
01:14 12 °C 11 °C 1000.2 hPa N 22 km/h 18 km/h 96% 0 mm 0 W/m2
01:19 12 °C 11 °C 1000.17 hPa N 20 km/h 17 km/h 96% 0 mm 0 W/m2
01:24 12 °C 11 °C 1000.14 hPa N 19 km/h 14 km/h 96% 0 mm 0 W/m2
01:29 12 °C 11 °C 1000.1 hPa N 22 km/h 17 km/h 96% 0 mm 0 W/m2
01:34 12 °C 11 °C 1000.07 hPa N 21 km/h 19 km/h 96% 0 mm 0 W/m2
01:39 12 °C 11 °C 999.97 hPa N 22 km/h 17 km/h 96% 0 mm 0 W/m2
01:44 12 °C 11 °C 999.83 hPa N 24 km/h 19 km/h 96% 0 mm 0 W/m2
01:49 12 °C 11 °C 999.87 hPa N 21 km/h 13 km/h 96% 0 mm 0 W/m2
01:54 12 °C 11 °C 999.87 hPa N 22 km/h 19 km/h 96% 0 mm 0 W/m2
01:59 12 °C 11 °C 999.83 hPa N 22 km/h 18 km/h 96% 0 mm 0 W/m2
02:04 12 °C 11 °C 999.83 hPa N 23 km/h 17 km/h 96% 0 mm 0 W/m2
02:09 12 °C 11 °C 999.76 hPa N 18 km/h 11 km/h 96% 0 mm 0 W/m2
02:14 12 °C 11 °C 999.76 hPa N 18 km/h 13 km/h 95% 0 mm 0 W/m2
02:19 12 °C 11 °C 999.8 hPa N 18 km/h 13 km/h 95% 0 mm 0 W/m2
02:24 12 °C 11 °C 999.83 hPa N 13 km/h 13 km/h 96% 0 mm 0 W/m2
02:29 12 °C 11 °C 999.8 hPa N 17 km/h 11 km/h 96% 0 mm 0 W/m2
02:34 12 °C 11 °C 999.87 hPa N 16 km/h 14 km/h 95% 0 mm 0 W/m2
02:39 12 °C 11 °C 999.87 hPa NNW 17 km/h 10 km/h 95% 0 mm 0 W/m2
02:44 11 °C 11 °C 999.9 hPa NNW 16 km/h 11 km/h 95% 0 mm 0 W/m2
02:49 11 °C 11 °C 999.9 hPa NNW 16 km/h 8 km/h 95% 0 mm 0 W/m2
02:54 11 °C 11 °C 999.93 hPa NW 9 km/h 7 km/h 95% 0 mm 0 W/m2
02:59 11 °C 11 °C 999.93 hPa NW 12 km/h 6 km/h 95% 0 mm 0 W/m2
03:04 11 °C 11 °C 999.93 hPa N 14 km/h 13 km/h 95% 0 mm 0 W/m2
03:09 11 °C 10 °C 999.97 hPa NNW 15 km/h 9 km/h 95% 0 mm 0 W/m2
03:14 11 °C 10 °C 999.97 hPa NNW 14 km/h 8 km/h 95% 0 mm 0 W/m2
03:19 11 °C 10 °C 1000.03 hPa NNW 15 km/h 9 km/h 95% 0 mm 0 W/m2
03:24 11 °C 10 °C 1000.03 hPa NNW 17 km/h 11 km/h 95% 0 mm 0 W/m2
03:29 11 °C 10 °C 1000.1 hPa NW 15 km/h 10 km/h 95% 0 mm 0 W/m2
03:34 11 °C 10 °C 1000.2 hPa NW 19 km/h 13 km/h 94% 0 mm 0 W/m2
03:39 11 °C 10 °C 1000.27 hPa NNW 14 km/h 11 km/h 94% 0 mm 0 W/m2
03:44 11 °C 10 °C 1000.24 hPa NNW 16 km/h 10 km/h 94% 0 mm 0 W/m2
03:49 11 °C 10 °C 1000.34 hPa NNW 11 km/h 7 km/h 94% 0 mm 0 W/m2
03:54 11 °C 10 °C 1000.34 hPa NNW 14 km/h 10 km/h 94% 0 mm 0 W/m2
03:59 11 °C 10 °C 1000.31 hPa NNW 12 km/h 8 km/h 94% 0 mm 0 W/m2
04:04 11 °C 10 °C 1000.31 hPa NW 17 km/h 12 km/h 93% 0 mm 0 W/m2
04:09 11 °C 10 °C 1000.41 hPa NNW 15 km/h 14 km/h 93% 0 mm 0 W/m2
04:14 11 °C 10 °C 1000.44 hPa NNW 14 km/h 12 km/h 93% 0 mm 0 W/m2
04:19 11 °C 10 °C 1000.51 hPa NW 11 km/h 8 km/h 93% 0 mm 0 W/m2
04:24 11 °C 10 °C 1000.44 hPa NNW 11 km/h 7 km/h 93% 0 mm 0 W/m2
04:29 11 °C 9 °C 1000.47 hPa NW 13 km/h 9 km/h 92% 0 mm 0 W/m2
04:34 11 °C 9 °C 1000.47 hPa NNW 13 km/h 13 km/h 92% 0 mm 0 W/m2
04:39 10 °C 9 °C 1000.54 hPa NW 17 km/h 9 km/h 92% 0 mm 0 W/m2
04:44 10 °C 9 °C 1000.58 hPa NW 15 km/h 9 km/h 92% 0 mm 0 W/m2
04:49 10 °C 9 °C 1000.61 hPa NNW 14 km/h 8 km/h 92% 0 mm 5 W/m2
04:54 10 °C 9 °C 1000.61 hPa NW 16 km/h 8 km/h 92% 0 mm 5 W/m2
04:59 10 °C 9 °C 1000.58 hPa NNW 16 km/h 9 km/h 91% 0 mm 7 W/m2
05:04 10 °C 9 °C 1000.64 hPa NNW 17 km/h 12 km/h 91% 0 mm 7 W/m2
05:09 10 °C 9 °C 1000.64 hPa NNW 17 km/h 13 km/h 91% 0 mm 11 W/m2
05:14 10 °C 9 °C 1000.71 hPa NW 13 km/h 7 km/h 91% 0 mm 16 W/m2
05:19 10 °C 9 °C 1000.71 hPa NNW 17 km/h 10 km/h 91% 0 mm 19 W/m2
05:24 11 °C 9 °C 1000.71 hPa NNW 21 km/h 9 km/h 91% 0 mm 21 W/m2
05:29 10 °C 9 °C 1000.75 hPa NNW 14 km/h 10 km/h 91% 0 mm 23 W/m2
05:34 10 °C 9 °C 1000.81 hPa NNW 12 km/h 12 km/h 91% 0 mm 37 W/m2
05:39 10 °C 9 °C 1000.88 hPa NW 19 km/h 14 km/h 92% 0 mm 63 W/m2
05:44 10 °C 9 °C 1000.95 hPa NW 17 km/h 14 km/h 92% 0 mm 54 W/m2
05:49 10 °C 9 °C 1001.08 hPa NW 14 km/h 9 km/h 92% 0 mm 46 W/m2
05:54 10 °C 9 °C 1001.12 hPa NNW 16 km/h 11 km/h 93% 0 mm 56 W/m2
05:59 10 °C 9 °C 1001.15 hPa NW 13 km/h 10 km/h 93% 0 mm 90 W/m2
06:04 10 °C 9 °C 1001.22 hPa N 14 km/h 10 km/h 93% 0 mm 95 W/m2
06:09 10 °C 9 °C 1001.25 hPa NW 9 km/h 6 km/h 93% 0 mm 86 W/m2
06:14 10 °C 9 °C 1001.25 hPa NW 14 km/h 10 km/h 93% 0 mm 69 W/m2
06:19 10 °C 9 °C 1001.32 hPa WNW 14 km/h 7 km/h 93% 0 mm 58 W/m2
06:24 10 °C 9 °C 1001.39 hPa NNW 12 km/h 7 km/h 93% 0 mm 40 W/m2
06:29 10 °C 9 °C 1001.46 hPa NW 13 km/h 9 km/h 93% 0 mm 37 W/m2
06:34 10 °C 9 °C 1001.39 hPa NNW 10 km/h 7 km/h 93% 0 mm 77 W/m2
06:39 10 °C 9 °C 1001.49 hPa NW 12 km/h 8 km/h 93% 0 mm 90 W/m2
06:44 10 °C 9 °C 1001.52 hPa NNW 14 km/h 9 km/h 93% 0 mm 90 W/m2
06:49 10 °C 9 °C 1001.56 hPa NNW 15 km/h 10 km/h 92% 0 mm 40 W/m2
06:54 10 °C 9 °C 1001.63 hPa NW 20 km/h 14 km/h 91% 0 mm 37 W/m2
06:59 10 °C 9 °C 1001.73 hPa NNW 16 km/h 10 km/h 91% 0 mm 39 W/m2
07:04 10 °C 9 °C 1001.76 hPa NNW 15 km/h 13 km/h 90% 0 mm 167 W/m2
07:09 11 °C 9 °C 1001.83 hPa NW 16 km/h 12 km/h 90% 0 mm 236 W/m2
07:14 11 °C 9 °C 1001.86 hPa NNW 15 km/h 13 km/h 89% 0 mm 248 W/m2
07:19 11 °C 9 °C 1001.9 hPa NNW 20 km/h 13 km/h 88% 0 mm 260 W/m2
07:24 11 °C 9 °C 1002 hPa NW 22 km/h 14 km/h 86% 0 mm 271 W/m2
07:29 11 °C 9 °C 1002 hPa NW 17 km/h 12 km/h 86% 0 mm 283 W/m2
07:34 11 °C 9 °C 1002.1 hPa NNW 22 km/h 14 km/h 85% 0 mm 297 W/m2
07:39 11 °C 9 °C 1002.13 hPa NNW 19 km/h 11 km/h 85% 0 mm 309 W/m2
07:44 12 °C 9 °C 1002.3 hPa NNW 16 km/h 11 km/h 85% 0 mm 322 W/m2
07:49 12 °C 9 °C 1002.34 hPa NNW 19 km/h 13 km/h 84% 0 mm 334 W/m2
07:54 12 °C 9 °C 1002.4 hPa NW 28 km/h 18 km/h 84% 0 mm 345 W/m2
07:59 12 °C 9 °C 1002.44 hPa NW 25 km/h 16 km/h 83% 0 mm 355 W/m2
08:04 12 °C 9 °C 1002.51 hPa NW 21 km/h 15 km/h 83% 0 mm 367 W/m2
08:09 12 °C 9 °C 1002.64 hPa NNW 21 km/h 16 km/h 83% 0 mm 381 W/m2
08:14 12 °C 9 °C 1002.74 hPa NW 22 km/h 14 km/h 82% 0 mm 410 W/m2
08:19 12 °C 9 °C 1002.81 hPa NNW 25 km/h 17 km/h 81% 0 mm 443 W/m2
08:24 12 °C 9 °C 1002.91 hPa NW 27 km/h 20 km/h 80% 0 mm 464 W/m2
08:29 12 °C 9 °C 1002.98 hPa NW 24 km/h 19 km/h 79% 0 mm 497 W/m2
08:34 12 °C 9 °C 1003.05 hPa NW 38 km/h 29 km/h 78% 0 mm 497 W/m2
08:39 12 °C 9 °C 1003.15 hPa NW 24 km/h 19 km/h 79% 0 mm 499 W/m2
08:44 12 °C 9 °C 1003.12 hPa NW 24 km/h 18 km/h 79% 0 mm 499 W/m2
08:49 12 °C 9 °C 1003.32 hPa NW 25 km/h 18 km/h 78% 0 mm 499 W/m2
08:54 12 °C 9 °C 1003.35 hPa NW 24 km/h 16 km/h 77% 0 mm 512 W/m2
08:59 13 °C 9 °C 1003.42 hPa NW 26 km/h 21 km/h 77% 0 mm 512 W/m2
09:04 13 °C 9 °C 1003.45 hPa NW 28 km/h 22 km/h 76% 0 mm 529 W/m2
09:09 13 °C 9 °C 1003.49 hPa NW 19 km/h 14 km/h 76% 0 mm 522 W/m2
09:14 13 °C 9 °C 1003.56 hPa NW 25 km/h 17 km/h 76% 0 mm 566 W/m2
09:19 13 °C 9 °C 1003.66 hPa NW 30 km/h 20 km/h 74% 0 mm 587 W/m2
09:24 13 °C 8 °C 1003.79 hPa NW 31 km/h 25 km/h 74% 0 mm 550 W/m2
09:29 13 °C 8 °C 1003.83 hPa NW 35 km/h 25 km/h 73% 0 mm 555 W/m2
09:34 13 °C 8 °C 1003.89 hPa NW 25 km/h 21 km/h 73% 0 mm 587 W/m2
09:39 13 °C 9 °C 1003.93 hPa NW 24 km/h 19 km/h 74% 0 mm 628 W/m2
09:44 13 °C 8 °C 1004.06 hPa NW 31 km/h 19 km/h 72% 0 mm 624 W/m2
09:49 13 °C 8 °C 1004.1 hPa NNW 37 km/h 25 km/h 71% 0 mm 601 W/m2
09:54 13 °C 8 °C 1004.3 hPa NW 35 km/h 25 km/h 70% 0 mm 640 W/m2
09:59 13 °C 8 °C 1004.3 hPa NW 24 km/h 19 km/h 70% 0 mm 640 W/m2
10:04 13 °C 8 °C 1004.3 hPa NNW 24 km/h 15 km/h 71% 0 mm 624 W/m2
10:09 13 °C 8 °C 1004.4 hPa NW 27 km/h 15 km/h 69% 0 mm 638 W/m2
10:14 13 °C 8 °C 1004.44 hPa NW 28 km/h 21 km/h 69% 0 mm 631 W/m2
10:19 13 °C 8 °C 1004.47 hPa NW 24 km/h 20 km/h 68% 0 mm 635 W/m2
10:24 14 °C 8 °C 1004.54 hPa NW 19 km/h 15 km/h 68% 0 mm 645 W/m2
10:29 14 °C 8 °C 1004.61 hPa NNW 19 km/h 15 km/h 67% 0 mm 675 W/m2
10:34 14 °C 8 °C 1004.78 hPa NNW 23 km/h 17 km/h 65% 0 mm 758 W/m2
10:39 14 °C 7 °C 1004.78 hPa NNW 32 km/h 19 km/h 64% 0 mm 833 W/m2
10:44 14 °C 7 °C 1004.84 hPa NNW 26 km/h 19 km/h 64% 0 mm 833 W/m2
10:49 14 °C 7 °C 1004.84 hPa NNW 30 km/h 20 km/h 64% 0 mm 719 W/m2
10:54 14 °C 8 °C 1004.91 hPa NW 17 km/h 17 km/h 66% 0 mm 791 W/m2
10:59 14 °C 8 °C 1004.98 hPa NW 20 km/h 14 km/h 67% 0 mm 712 W/m2
11:04 14 °C 8 °C 1005.01 hPa NNW 27 km/h 19 km/h 67% 0 mm 712 W/m2
11:09 14 °C 7 °C 1005.15 hPa NNW 28 km/h 23 km/h 65% 0 mm 717 W/m2
11:14 14 °C 8 °C 1005.18 hPa NW 16 km/h 13 km/h 67% 0 mm 751 W/m2
11:19 14 °C 8 °C 1005.15 hPa NW 19 km/h 16 km/h 65% 0 mm 285 W/m2
11:24 14 °C 8 °C 1005.22 hPa NW 21 km/h 15 km/h 65% 0 mm 285 W/m2
11:29 14 °C 8 °C 1005.15 hPa NW 20 km/h 13 km/h 65% 0 mm 939 W/m2
11:34 15 °C 8 °C 1005.22 hPa NW 21 km/h 13 km/h 64% 0 mm 844 W/m2
11:39 15 °C 8 °C 1005.32 hPa NW 18 km/h 12 km/h 63% 0 mm 898 W/m2
11:44 15 °C 8 °C 1005.32 hPa NNW 31 km/h 21 km/h 62% 0 mm 898 W/m2
11:49 15 °C 8 °C 1005.38 hPa NNW 23 km/h 19 km/h 61% 0 mm 833 W/m2
11:54 15 °C 7 °C 1005.42 hPa NW 22 km/h 16 km/h 60% 0 mm 925 W/m2
11:59 15 °C 8 °C 1005.45 hPa NNW 28 km/h 16 km/h 62% 0 mm 925 W/m2
12:04 15 °C 8 °C 1005.45 hPa NW 21 km/h 13 km/h 62% 0 mm 895 W/m2
12:09 15 °C 8 °C 1005.45 hPa NW 19 km/h 15 km/h 64% 0 mm 895 W/m2
12:14 15 °C 8 °C 1005.49 hPa NNW 21 km/h 14 km/h 64% 0 mm 823 W/m2
12:19 15 °C 8 °C 1005.55 hPa NNW 22 km/h 17 km/h 63% 0 mm 853 W/m2
12:24 15 °C 8 °C 1005.55 hPa NNW 22 km/h 15 km/h 63% 0 mm 877 W/m2
12:29 15 °C 8 °C 1005.49 hPa NNW 23 km/h 16 km/h 62% 0 mm 798 W/m2
12:34 15 °C 8 °C 1005.52 hPa NNW 28 km/h 15 km/h 62% 0 mm 824 W/m2
12:39 15 °C 8 °C 1005.55 hPa NNW 23 km/h 15 km/h 62% 0 mm 998 W/m2
12:44 15 °C 8 °C 1005.69 hPa NNW 20 km/h 16 km/h 62% 0 mm 998 W/m2
12:49 15 °C 8 °C 1005.83 hPa NNW 23 km/h 17 km/h 62% 0 mm 399 W/m2
12:54 15 °C 8 °C 1006.06 hPa NNW 27 km/h 21 km/h 63% 0 mm 466 W/m2
12:59 14 °C 8 °C 1006.1 hPa NNW 25 km/h 20 km/h 69% 0 mm 851 W/m2
13:04 13 °C 9 °C 1006.06 hPa NW 18 km/h 14 km/h 74% 0 mm 851 W/m2
13:09 13 °C 8 °C 1006.16 hPa NW 11 km/h 13 km/h 74% 0 mm 246 W/m2
13:14 13 °C 8 °C 1006.16 hPa NNW 13 km/h 17 km/h 73% 0 mm 246 W/m2
13:19 13 °C 8 °C 1006.3 hPa NNW 30 km/h 23 km/h 74% 0 mm 283 W/m2
13:24 12 °C 8 °C 1006.37 hPa NW 21 km/h 17 km/h 77% 0.2 mm 283 W/m2
13:29 12 °C 8 °C 1006.3 hPa NW 14 km/h 8 km/h 80% 0.2 mm 758 W/m2
13:34 12 °C 9 °C 1006.27 hPa NW 14 km/h 8 km/h 82% 0.2 mm 816 W/m2
13:39 13 °C 10 °C 1006.23 hPa WNW 12 km/h 8 km/h 82% 0.2 mm 900 W/m2
13:44 13 °C 10 °C 1006.2 hPa NW 12 km/h 8 km/h 79% 0.2 mm 900 W/m2
13:49 14 °C 9 °C 1006.3 hPa NW 22 km/h 15 km/h 73% 0.2 mm 738 W/m2
13:54 13 °C 9 °C 1006.43 hPa NNW 19 km/h 17 km/h 75% 0.41 mm 220 W/m2
13:59 12 °C 9 °C 1006.43 hPa NW 12 km/h 9 km/h 80% 0.41 mm 721 W/m2
14:04 12 °C 10 °C 1006.4 hPa NW 14 km/h 10 km/h 83% 0.41 mm 775 W/m2
14:09 13 °C 10 °C 1006.47 hPa NW 22 km/h 15 km/h 82% 0.41 mm 763 W/m2
14:14 13 °C 10 °C 1006.5 hPa NW 14 km/h 11 km/h 79% 0.41 mm 775 W/m2
14:19 14 °C 10 °C 1006.5 hPa NW 18 km/h 11 km/h 76% 0.41 mm 809 W/m2
14:24 14 °C 9 °C 1006.5 hPa NW 19 km/h 11 km/h 73% 0.41 mm 889 W/m2
14:29 14 °C 9 °C 1006.6 hPa NW 18 km/h 12 km/h 72% 0.2 mm 889 W/m2
14:34 14 °C 8 °C 1006.77 hPa NW 17 km/h 12 km/h 70% 0.2 mm 225 W/m2
14:39 13 °C 9 °C 1006.77 hPa NW 16 km/h 11 km/h 73% 0.2 mm 195 W/m2
14:44 13 °C 9 °C 1006.67 hPa NW 15 km/h 10 km/h 77% 0.2 mm 227 W/m2
14:49 13 °C 9 °C 1006.71 hPa WNW 13 km/h 9 km/h 77% 0.2 mm 227 W/m2
14:54 13 °C 9 °C 1006.74 hPa WNW 6 km/h 7 km/h 77% 0 mm 195 W/m2
14:59 13 °C 9 °C 1006.77 hPa NW 9 km/h 8 km/h 76% 0 mm 227 W/m2
15:04 13 °C 8 °C 1006.74 hPa NNW 21 km/h 13 km/h 71% 0 mm 923 W/m2
15:09 14 °C 8 °C 1006.74 hPa NNW 26 km/h 18 km/h 67% 0 mm 918 W/m2
15:14 15 °C 8 °C 1006.6 hPa NNW 21 km/h 16 km/h 65% 0 mm 937 W/m2
15:19 15 °C 8 °C 1006.64 hPa NNW 21 km/h 14 km/h 62% 0 mm 949 W/m2
15:24 15 °C 8 °C 1006.67 hPa NNW 19 km/h 14 km/h 61% 0 mm 949 W/m2
15:29 15 °C 8 °C 1006.74 hPa NNW 20 km/h 15 km/h 64% 0 mm 325 W/m2
15:34 14 °C 8 °C 1006.77 hPa NNW 24 km/h 21 km/h 67% 0 mm 870 W/m2
15:39 14 °C 9 °C 1006.74 hPa N 24 km/h 16 km/h 70% 0 mm 849 W/m2
15:44 14 °C 9 °C 1006.77 hPa NNW 25 km/h 18 km/h 68% 0 mm 809 W/m2
15:49 15 °C 9 °C 1006.77 hPa N 22 km/h 17 km/h 66% 0 mm 773 W/m2
15:54 15 °C 9 °C 1006.81 hPa N 20 km/h 17 km/h 69% 0 mm 791 W/m2
15:59 14 °C 9 °C 1006.81 hPa NNW 20 km/h 18 km/h 70% 0 mm 791 W/m2
16:04 14 °C 9 °C 1006.84 hPa N 18 km/h 13 km/h 70% 0 mm 773 W/m2
16:09 14 °C 9 °C 1006.81 hPa N 20 km/h 15 km/h 70% 0 mm 722 W/m2
16:14 14 °C 9 °C 1006.77 hPa NNW 19 km/h 12 km/h 68% 0 mm 260 W/m2
16:19 14 °C 8 °C 1006.84 hPa NNW 26 km/h 21 km/h 67% 0 mm 761 W/m2
16:24 14 °C 9 °C 1006.94 hPa NNW 24 km/h 14 km/h 68% 0 mm 761 W/m2
16:29 15 °C 9 °C 1006.94 hPa N 22 km/h 16 km/h 67% 0 mm 687 W/m2
16:34 15 °C 8 °C 1006.94 hPa N 27 km/h 18 km/h 63% 0 mm 689 W/m2
16:39 15 °C 7 °C 1006.94 hPa NNW 26 km/h 16 km/h 61% 0 mm 805 W/m2
16:44 15 °C 7 °C 1006.94 hPa NNW 26 km/h 17 km/h 60% 0 mm 805 W/m2
16:49 15 °C 7 °C 1006.98 hPa N 23 km/h 14 km/h 60% 0 mm 455 W/m2
16:54 15 °C 8 °C 1006.98 hPa N 26 km/h 18 km/h 62% 0 mm 742 W/m2
16:59 15 °C 9 °C 1007.01 hPa N 18 km/h 14 km/h 67% 0 mm 624 W/m2
17:04 14 °C 8 °C 1007.01 hPa NNW 26 km/h 17 km/h 66% 0 mm 587 W/m2
17:09 14 °C 7 °C 1007.04 hPa N 29 km/h 21 km/h 62% 0 mm 564 W/m2
17:14 14 °C 7 °C 1007.15 hPa N 21 km/h 15 km/h 64% 0 mm 555 W/m2
17:19 14 °C 8 °C 1007.15 hPa N 22 km/h 16 km/h 67% 0 mm 545 W/m2
17:24 13 °C 8 °C 1007.21 hPa N 25 km/h 16 km/h 69% 0 mm 538 W/m2
17:29 13 °C 8 °C 1007.21 hPa N 21 km/h 14 km/h 70% 0 mm 524 W/m2
17:34 13 °C 8 °C 1007.21 hPa N 26 km/h 16 km/h 70% 0 mm 512 W/m2
17:39 13 °C 8 °C 1007.25 hPa N 25 km/h 18 km/h 71% 0 mm 506 W/m2
17:44 13 °C 8 °C 1007.25 hPa N 26 km/h 19 km/h 72% 0 mm 497 W/m2
17:49 13 °C 8 °C 1007.15 hPa N 24 km/h 18 km/h 72% 0 mm 487 W/m2
17:54 13 °C 8 °C 1007.11 hPa NNW 18 km/h 14 km/h 72% 0 mm 480 W/m2
17:59 13 °C 8 °C 1007.15 hPa N 25 km/h 13 km/h 69% 0 mm 473 W/m2
18:04 14 °C 8 °C 1007.11 hPa N 19 km/h 15 km/h 69% 0 mm 459 W/m2
18:09 14 °C 8 °C 1007.11 hPa N 24 km/h 18 km/h 67% 0 mm 445 W/m2
18:14 14 °C 8 °C 1007.08 hPa NNW 21 km/h 13 km/h 67% 0 mm 441 W/m2
18:19 14 °C 8 °C 1007.08 hPa NNW 17 km/h 10 km/h 68% 0 mm 420 W/m2
18:24 14 °C 8 °C 1007.08 hPa NNW 21 km/h 13 km/h 67% 0 mm 408 W/m2
18:29 14 °C 7 °C 1007.15 hPa N 24 km/h 17 km/h 64% 0 mm 429 W/m2
18:34 14 °C 7 °C 1007.15 hPa NNW 18 km/h 12 km/h 65% 0 mm 429 W/m2
18:39 14 °C 7 °C 1007.11 hPa N 17 km/h 13 km/h 64% 0 mm 378 W/m2
18:44 14 °C 7 °C 1007.01 hPa N 23 km/h 15 km/h 62% 0 mm 364 W/m2
18:49 14 °C 7 °C 1007.01 hPa NNW 19 km/h 14 km/h 62% 0 mm 369 W/m2
18:54 14 °C 6 °C 1006.94 hPa NNW 18 km/h 14 km/h 61% 0 mm 359 W/m2
18:59 14 °C 7 °C 1006.91 hPa NNW 16 km/h 10 km/h 64% 0 mm 329 W/m2
19:04 14 °C 7 °C 1006.87 hPa N 26 km/h 18 km/h 63% 0 mm 322 W/m2
19:09 13 °C 6 °C 1006.87 hPa NNW 27 km/h 18 km/h 61% 0 mm 313 W/m2
19:14 13 °C 6 °C 1006.91 hPa NNW 17 km/h 11 km/h 62% 0 mm 297 W/m2
19:19 13 °C 6 °C 1006.91 hPa NNW 16 km/h 12 km/h 62% 0 mm 297 W/m2
19:24 13 °C 7 °C 1006.91 hPa NNW 20 km/h 11 km/h 67% 0 mm 292 W/m2
19:29 13 °C 8 °C 1006.84 hPa NW 14 km/h 11 km/h 69% 0 mm 276 W/m2
19:34 13 °C 7 °C 1006.87 hPa NNW 19 km/h 15 km/h 68% 0 mm 255 W/m2
19:39 13 °C 6 °C 1006.84 hPa NNW 21 km/h 15 km/h 62% 0 mm 241 W/m2
19:44 13 °C 6 °C 1006.81 hPa NNW 19 km/h 16 km/h 63% 0 mm 230 W/m2
19:49 13 °C 6 °C 1006.71 hPa NNW 12 km/h 9 km/h 64% 0 mm 216 W/m2
19:54 13 °C 7 °C 1006.67 hPa NW 17 km/h 9 km/h 65% 0 mm 204 W/m2
19:59 13 °C 6 °C 1006.6 hPa NNW 23 km/h 15 km/h 64% 0 mm 193 W/m2
20:04 13 °C 6 °C 1006.64 hPa NNW 13 km/h 10 km/h 64% 0 mm 183 W/m2
20:09 13 °C 7 °C 1006.67 hPa NW 11 km/h 7 km/h 65% 0 mm 176 W/m2
20:14 13 °C 7 °C 1006.64 hPa NW 11 km/h 7 km/h 65% 0 mm 174 W/m2
20:19 13 °C 7 °C 1006.64 hPa NNW 14 km/h 9 km/h 65% 0 mm 155 W/m2
20:24 13 °C 7 °C 1006.6 hPa NW 14 km/h 9 km/h 67% 0 mm 139 W/m2
20:29 12 °C 7 °C 1006.54 hPa NW 9 km/h 5 km/h 68% 0 mm 128 W/m2
20:34 12 °C 7 °C 1006.5 hPa NW 6 km/h 4 km/h 69% 0 mm 123 W/m2
20:39 12 °C 7 °C 1006.47 hPa NNW 12 km/h 10 km/h 70% 0 mm 114 W/m2
20:44 12 °C 7 °C 1006.43 hPa NNW 14 km/h 8 km/h 73% 0 mm 105 W/m2
20:49 12 °C 8 °C 1006.43 hPa NNW 15 km/h 9 km/h 75% 0 mm 98 W/m2
20:54 12 °C 7 °C 1006.4 hPa NNW 14 km/h 9 km/h 76% 0 mm 86 W/m2
20:59 11 °C 8 °C 1006.4 hPa NNW 16 km/h 11 km/h 77% 0 mm 77 W/m2
Compliments of Weather Underground - 2 mb